createdAt,value
2019-05-07T00:02:03.734Z,94.00
2019-05-07T00:04:42.850Z,93.50
2019-05-07T00:07:18.730Z,92.90
2019-05-07T00:09:56.234Z,92.90
2019-05-07T00:12:33.712Z,92.50
2019-05-07T00:15:12.571Z,92.40
2019-05-07T00:17:48.714Z,92.40
2019-05-07T00:20:26.228Z,92.40
2019-05-07T00:23:03.703Z,92.20
2019-05-07T00:25:42.213Z,92.00
2019-05-07T00:28:23.059Z,91.60
2019-05-07T00:30:59.210Z,91.30
2019-05-07T00:33:36.700Z,91.20
2019-05-07T00:36:29.563Z,91.30
2019-05-07T00:39:32.988Z,91.20
2019-05-07T00:42:18.332Z,91.00
2019-05-07T00:45:23.760Z,90.90
2019-05-07T00:47:58.432Z,90.80
2019-05-07T00:50:35.938Z,90.70
2019-05-07T00:53:13.404Z,90.70
2019-05-07T00:55:52.567Z,90.30
2019-05-07T00:58:28.386Z,90.30
2019-05-07T01:01:05.888Z,90.10
2019-05-07T01:03:43.374Z,89.70
2019-05-07T01:06:22.786Z,89.20
2019-05-07T01:08:58.399Z,89.20
2019-05-07T01:11:35.899Z,89.30
2019-05-07T01:14:13.382Z,89.30
2019-05-07T01:16:52.967Z,89.30
2019-05-07T01:19:28.368Z,89.00
2019-05-07T01:22:05.889Z,88.70
2019-05-07T01:24:43.354Z,88.50
2019-05-07T01:27:22.652Z,88.50
2019-05-07T01:29:58.336Z,88.40
2019-05-07T01:32:49.930Z,88.60
2019-05-07T01:35:46.050Z,88.70
2019-05-07T01:38:23.520Z,88.30
2019-05-07T01:41:02.869Z,88.00
2019-05-07T01:43:38.520Z,88.00
2019-05-07T01:46:16.024Z,88.30
2019-05-07T01:48:56.972Z,88.30
2019-05-07T01:51:32.583Z,88.10
2019-05-07T01:54:08.510Z,87.90
2019-05-07T01:56:46.029Z,88.30
2019-05-07T01:59:23.498Z,87.70
2019-05-07T02:02:03.515Z,87.70
2019-05-07T02:04:55.934Z,87.50
2019-05-07T02:07:36.941Z,86.90
2019-05-07T02:10:36.234Z,86.30
2019-05-07T02:13:13.756Z,85.90
2019-05-07T02:16:00.226Z,85.70
2019-05-07T02:18:28.761Z,85.90
2019-05-07T02:21:06.264Z,86.30
2019-05-07T02:23:43.738Z,86.50
2019-05-07T02:26:22.554Z,86.70
2019-05-07T02:28:58.724Z,87.50
2019-05-07T02:31:36.249Z,88.70
2019-05-07T02:34:14.061Z,90.00
2019-05-07T02:36:53.754Z,90.00
2019-05-07T02:39:38.135Z,90.00
2019-05-07T02:42:15.694Z,89.70
2019-05-07T02:45:24.010Z,90.10
2019-05-07T02:47:59.093Z,90.20
2019-05-07T02:50:43.506Z,90.40
2019-05-07T02:53:23.202Z,90.50
2019-05-07T02:56:03.387Z,90.50
2019-05-07T02:58:38.264Z,90.40
2019-05-07T03:01:15.767Z,90.40
2019-05-07T03:03:53.288Z,90.40
2019-05-07T03:06:33.611Z,90.80
2019-05-07T03:09:08.820Z,90.90
2019-05-07T03:11:46.596Z,91.20
2019-05-07T03:14:24.141Z,91.30
2019-05-07T03:17:03.081Z,91.30
2019-05-07T03:19:39.127Z,91.40
2019-05-07T03:22:16.614Z,91.50
2019-05-07T03:25:03.336Z,91.50
2019-05-07T03:27:38.079Z,91.50
2019-05-07T03:30:35.431Z,91.40
2019-05-07T03:33:17.528Z,91.40
2019-05-07T03:35:57.207Z,91.30
2019-05-07T03:38:34.229Z,91.20
2019-05-07T03:41:12.873Z,91.20
2019-05-07T03:43:49.200Z,91.00
2019-05-07T03:46:26.651Z,90.90
2019-05-07T03:49:04.155Z,90.70
2019-05-07T03:51:44.299Z,90.40
2019-05-07T03:54:19.157Z,90.10
2019-05-07T03:56:56.656Z,90.00
2019-05-07T03:59:34.535Z,90.00
2019-05-07T04:02:14.250Z,90.00
2019-05-07T04:04:49.181Z,90.10
2019-05-07T04:07:26.644Z,90.30
2019-05-07T04:10:04.787Z,90.30
2019-05-07T04:12:44.253Z,90.30
2019-05-07T04:15:19.679Z,90.40
2019-05-07T04:17:56.816Z,90.40
2019-05-07T04:20:34.302Z,90.50
2019-05-07T04:23:13.733Z,90.50
2019-05-07T04:25:55.746Z,90.50
2019-05-07T04:29:06.207Z,90.50
2019-05-07T04:31:43.734Z,90.50
2019-05-07T04:34:23.951Z,90.30
2019-05-07T04:37:03.303Z,90.30
2019-05-07T04:39:38.639Z,90.40
2019-05-07T04:42:16.215Z,90.80
2019-05-07T04:44:54.156Z,90.90
2019-05-07T04:47:42.128Z,90.50
2019-05-07T04:50:08.980Z,89.70
2019-05-07T04:52:46.468Z,89.10
2019-05-07T04:55:23.984Z,88.70
2019-05-07T04:58:03.367Z,88.10
2019-05-07T05:00:38.972Z,88.30
2019-05-07T05:03:24.450Z,86.80
2019-05-07T05:06:02.653Z,87.10
2019-05-07T05:08:39.485Z,87.50
2019-05-07T05:11:16.813Z,88.40
2019-05-07T05:13:54.468Z,88.10
2019-05-07T05:16:32.765Z,87.90
2019-05-07T05:19:09.473Z,90.00
2019-05-07T05:22:14.626Z,90.60
2019-05-07T05:25:09.449Z,91.40
2019-05-07T05:27:46.917Z,92.10
2019-05-07T05:30:30.069Z,93.60
2019-05-07T05:33:14.095Z,94.10
2019-05-07T05:35:52.591Z,94.00
2019-05-07T05:38:29.090Z,93.80
2019-05-07T05:41:12.520Z,94.00
2019-05-07T05:44:22.808Z,94.70
2019-05-07T05:47:02.280Z,96.10
2019-05-07T05:49:37.386Z,96.70
2019-05-07T05:52:36.479Z,99.20
2019-05-07T05:55:16.482Z,99.90
2019-05-07T05:58:16.477Z,99.90
2019-05-07T06:01:06.300Z,99.90
2019-05-07T06:03:52.002Z,99.90
2019-05-07T06:06:43.631Z,99.90
2019-05-07T06:09:42.101Z,99.90
2019-05-07T06:12:39.106Z,99.90
2019-05-07T06:15:35.247Z,99.90
2019-05-07T06:18:32.730Z,99.90
2019-05-07T06:21:18.417Z,99.90
2019-05-07T06:23:58.013Z,99.90
2019-05-07T06:26:35.934Z,99.90
2019-05-07T06:29:13.398Z,99.90
2019-05-07T06:32:02.609Z,99.90
2019-05-07T06:34:41.773Z,99.90
2019-05-07T06:37:16.597Z,99.90
2019-05-07T06:40:29.321Z,99.90
2019-05-07T06:43:21.829Z,99.90
2019-05-07T06:45:58.794Z,99.90
2019-05-07T06:48:42.271Z,99.90
2019-05-07T06:51:13.833Z,99.90
2019-05-07T06:53:51.880Z,99.90
2019-05-07T06:56:28.869Z,99.90
2019-05-07T06:59:09.508Z,99.90
2019-05-07T07:02:05.846Z,99.90
2019-05-07T07:04:51.985Z,99.80
2019-05-07T07:07:42.612Z,97.60
2019-05-07T07:10:52.339Z,96.70
2019-05-07T07:13:31.939Z,94.10
2019-05-07T07:16:07.363Z,92.50
2019-05-07T07:18:51.847Z,91.80
2019-05-07T07:21:22.323Z,84.80
2019-05-07T07:23:59.825Z,83.90
2019-05-07T07:26:38.080Z,83.40
2019-05-07T07:29:15.555Z,83.50
2019-05-07T07:31:56.041Z,83.10
2019-05-07T07:34:39.406Z,80.50
2019-05-07T07:37:22.986Z,80.80
2019-05-07T07:40:15.924Z,79.80
2019-05-07T07:42:53.456Z,79.40
2019-05-07T07:45:32.502Z,76.60
2019-05-07T07:48:09.380Z,76.60
2019-05-07T07:50:46.876Z,78.10
2019-05-07T07:53:24.371Z,78.50
2019-05-07T07:56:48.884Z,77.60
2019-05-07T07:59:18.248Z,77.50
2019-05-07T08:02:01.805Z,74.60
2019-05-07T08:04:37.798Z,75.20
2019-05-07T08:07:15.296Z,75.80
2019-05-07T08:09:52.774Z,75.30
2019-05-07T08:12:32.362Z,72.70
2019-05-07T08:15:17.357Z,72.80
2019-05-07T08:17:46.052Z,73.00
2019-05-07T08:20:23.573Z,72.00
2019-05-07T08:23:03.075Z,70.20
2019-05-07T08:25:52.669Z,68.20
2019-05-07T08:28:31.785Z,68.90
2019-05-07T08:31:28.684Z,68.60
2019-05-07T08:34:16.276Z,68.90
2019-05-07T08:36:53.744Z,67.20
2019-05-07T08:39:32.630Z,65.10
2019-05-07T08:42:08.788Z,63.60
2019-05-07T08:44:51.978Z,62.10
2019-05-07T08:47:39.320Z,61.50
2019-05-07T08:50:16.824Z,60.80
2019-05-07T08:52:54.350Z,59.60
2019-05-07T08:55:32.310Z,57.80
2019-05-07T08:58:09.369Z,56.20
2019-05-07T09:00:46.859Z,55.90
2019-05-07T09:03:43.619Z,56.20
2019-05-07T09:06:37.612Z,55.80
2019-05-07T09:09:15.133Z,55.10
2019-05-07T09:11:52.628Z,54.20
2019-05-07T09:14:32.045Z,53.40
2019-05-07T09:17:07.620Z,53.00
2019-05-07T09:19:51.519Z,52.60
2019-05-07T09:22:23.157Z,51.90
2019-05-07T09:25:00.115Z,51.10
2019-05-07T09:27:42.393Z,51.40
2019-05-07T09:30:41.996Z,51.50
2019-05-07T09:33:42.261Z,52.10
2019-05-07T09:36:29.367Z,52.20
2019-05-07T09:39:07.692Z,51.80
2019-05-07T09:41:45.200Z,51.50
2019-05-07T09:44:23.415Z,52.30
2019-05-07T09:47:02.653Z,52.80
2019-05-07T09:49:38.392Z,52.20
2019-05-07T09:52:16.318Z,52.40
2019-05-07T09:54:53.854Z,53.30
2019-05-07T09:57:34.381Z,53.60
2019-05-07T10:00:09.347Z,53.60
2019-05-07T10:02:46.859Z,53.30
2019-05-07T10:05:24.355Z,53.00
2019-05-07T10:08:02.015Z,53.30
2019-05-07T10:10:41.630Z,54.10
2019-05-07T10:13:32.994Z,53.30
2019-05-07T10:16:09.492Z,52.20
2019-05-07T10:18:47.007Z,51.20
2019-05-07T10:21:24.465Z,50.90
2019-05-07T10:24:02.456Z,50.90
2019-05-07T10:26:40.168Z,50.10
2019-05-07T10:29:17.114Z,49.30
2019-05-07T10:31:54.636Z,48.00
2019-05-07T10:34:32.103Z,49.00
2019-05-07T10:37:09.571Z,49.00
2019-05-07T10:39:47.097Z,48.50
2019-05-07T10:42:24.613Z,48.00
2019-05-07T10:45:15.204Z,47.50
2019-05-07T10:48:22.061Z,47.20
2019-05-07T10:50:59.289Z,48.00
2019-05-07T10:53:36.961Z,48.00
2019-05-07T10:56:14.461Z,48.60
2019-05-07T10:58:52.390Z,47.90
2019-05-07T11:01:43.352Z,46.60
2019-05-07T11:04:21.525Z,46.90
2019-05-07T11:06:58.348Z,46.30
2019-05-07T11:09:35.828Z,46.70
2019-05-07T11:12:14.381Z,47.00
2019-05-07T11:14:51.884Z,47.00
2019-05-07T11:17:54.382Z,46.20
2019-05-07T11:20:32.135Z,44.50
2019-05-07T11:23:09.361Z,43.00
2019-05-07T11:25:46.883Z,43.00
2019-05-07T11:28:24.373Z,42.10
2019-05-07T11:31:02.245Z,43.60
2019-05-07T11:33:41.563Z,44.50
2019-05-07T11:36:16.879Z,43.80
2019-05-07T11:38:54.366Z,45.40
2019-05-07T11:41:39.604Z,45.80
2019-05-07T11:44:22.891Z,46.10
2019-05-07T11:47:22.516Z,45.00
2019-05-07T11:50:35.512Z,44.30
2019-05-07T11:53:13.559Z,42.50
2019-05-07T11:55:52.395Z,39.10
2019-05-07T11:58:28.554Z,38.40
2019-05-07T12:01:08.817Z,38.80
2019-05-07T12:03:46.283Z,39.00
2019-05-07T12:06:23.797Z,39.50
2019-05-07T12:09:03.018Z,40.40
2019-05-07T12:11:38.807Z,39.80
2019-05-07T12:14:28.116Z,39.60
2019-05-07T12:16:53.836Z,38.10
2019-05-07T12:19:33.119Z,38.00
2019-05-07T12:22:08.842Z,38.40
2019-05-07T12:24:46.327Z,37.90
2019-05-07T12:27:23.818Z,35.30
2019-05-07T12:30:01.290Z,35.10
2019-05-07T12:32:43.608Z,33.50
2019-05-07T12:35:21.943Z,33.90
2019-05-07T12:37:58.642Z,33.70
2019-05-07T12:40:36.136Z,33.40
2019-05-07T12:43:13.647Z,33.10
2019-05-07T12:45:52.496Z,30.10
2019-05-07T12:48:28.651Z,28.70
2019-05-07T12:51:06.137Z,27.10
2019-05-07T12:53:46.723Z,25.40
2019-05-07T12:56:24.207Z,22.80
2019-05-07T12:59:02.227Z,21.10
2019-05-07T13:01:53.643Z,20.10
2019-05-07T13:04:32.525Z,20.00
2019-05-07T13:07:15.694Z,18.60
2019-05-07T13:09:53.167Z,18.30
2019-05-07T13:12:32.198Z,17.70
2019-05-07T13:15:23.522Z,17.00
2019-05-07T13:17:46.533Z,16.30
2019-05-07T13:20:24.015Z,15.20
2019-05-07T13:23:01.537Z,15.20
2019-05-07T13:25:39.013Z,15.70
2019-05-07T13:28:16.520Z,17.30
2019-05-07T13:30:54.485Z,19.10
2019-05-07T13:33:34.466Z,21.10
2019-05-07T13:36:09.487Z,23.20
2019-05-07T13:38:55.530Z,25.20
2019-05-07T13:41:57.898Z,26.90
2019-05-07T13:45:03.854Z,28.40
2019-05-07T13:47:43.098Z,30.30
2019-05-07T13:50:22.126Z,33.70
2019-05-07T13:52:58.121Z,35.20
2019-05-07T13:55:35.617Z,37.50
2019-05-07T13:58:14.313Z,40.20
2019-05-07T14:00:58.300Z,41.80
2019-05-07T14:03:35.814Z,45.70
2019-05-07T14:06:13.308Z,47.30
2019-05-07T14:08:52.267Z,48.40
2019-05-07T14:11:29.772Z,51.70
2019-05-07T14:14:07.475Z,52.80
2019-05-07T14:16:45.223Z,54.30
2019-05-07T14:19:22.812Z,54.10
2019-05-07T14:22:00.240Z,56.30
2019-05-07T14:24:37.923Z,62.20
2019-05-07T14:27:15.438Z,68.00
2019-05-07T14:29:53.033Z,70.20
2019-05-07T14:32:52.654Z,71.80
2019-05-07T14:35:40.014Z,74.20
2019-05-07T14:38:25.008Z,74.40
2019-05-07T14:41:02.800Z,75.80
2019-05-07T14:43:53.926Z,75.20
2019-05-07T14:46:44.565Z,73.20
2019-05-07T14:49:08.952Z,71.30
2019-05-07T14:51:46.426Z,72.20
2019-05-07T14:54:23.941Z,70.40
2019-05-07T14:57:02.270Z,70.40
2019-05-07T14:59:38.951Z,69.00
2019-05-07T15:02:16.448Z,68.00
2019-05-07T15:04:53.989Z,67.10
2019-05-07T15:07:32.683Z,65.10
2019-05-07T15:10:09.375Z,63.60
2019-05-07T15:12:46.860Z,62.60
2019-05-07T15:15:24.390Z,60.70
2019-05-07T15:18:09.662Z,59.40
2019-05-07T15:20:47.164Z,57.30
2019-05-07T15:23:36.744Z,55.10
2019-05-07T15:26:14.234Z,52.90
2019-05-07T15:28:55.391Z,50.00
2019-05-07T15:31:58.131Z,47.30
2019-05-07T15:34:35.626Z,44.00
2019-05-07T15:37:13.196Z,41.00
2019-05-07T15:39:52.585Z,40.10
2019-05-07T15:42:28.232Z,39.10
2019-05-07T15:45:05.733Z,38.20
2019-05-07T15:47:45.520Z,37.90
2019-05-07T15:50:23.189Z,37.40
2019-05-07T15:53:04.447Z,37.50
2019-05-07T15:55:41.977Z,37.70
2019-05-07T15:58:19.457Z,38.20
2019-05-07T16:00:56.954Z,38.70
2019-05-07T16:03:42.683Z,39.50
2019-05-07T16:06:17.971Z,40.10
2019-05-07T16:08:57.275Z,40.60
2019-05-07T16:11:34.796Z,41.60
2019-05-07T16:14:32.072Z,42.70
2019-05-07T16:17:18.045Z,43.50
2019-05-07T16:19:55.533Z,44.90
2019-05-07T16:22:35.795Z,46.00
2019-05-07T16:25:13.320Z,46.70
2019-05-07T16:27:52.712Z,48.00
2019-05-07T16:30:29.193Z,49.60
2019-05-07T16:33:06.762Z,49.00
2019-05-07T16:35:44.242Z,48.70
2019-05-07T16:38:22.163Z,48.70
2019-05-07T16:40:59.489Z,49.40
2019-05-07T16:43:36.978Z,49.80
2019-05-07T16:46:14.595Z,50.10
2019-05-07T16:48:52.301Z,50.70
2019-05-07T16:51:29.836Z,51.40
2019-05-07T16:54:07.345Z,51.50
2019-05-07T16:57:03.525Z,51.90
2019-05-07T16:59:42.709Z,52.70
2019-05-07T17:02:22.136Z,51.90
2019-05-07T17:05:06.752Z,52.10
2019-05-07T17:08:02.971Z,52.10
2019-05-07T17:10:42.287Z,52.20
2019-05-07T17:13:17.988Z,52.30
2019-05-07T17:15:56.325Z,52.80
2019-05-07T17:18:33.982Z,53.20
2019-05-07T17:21:12.361Z,53.70
2019-05-07T17:23:49.110Z,54.70
2019-05-07T17:26:26.639Z,54.50
2019-05-07T17:29:04.141Z,54.50
2019-05-07T17:31:42.451Z,54.80
2019-05-07T17:34:19.399Z,55.20
2019-05-07T17:36:56.937Z,55.30
2019-05-07T17:39:34.501Z,55.20
2019-05-07T17:42:12.184Z,55.20
2019-05-07T17:44:51.751Z,55.40
2019-05-07T17:47:27.263Z,55.60
2019-05-07T17:50:05.212Z,56.10
2019-05-07T17:52:42.747Z,56.20
2019-05-07T17:55:22.279Z,57.30
2019-05-07T17:57:57.731Z,57.00
2019-05-07T18:00:36.707Z,57.50
2019-05-07T18:03:39.555Z,57.80
2019-05-07T18:06:18.075Z,58.70
2019-05-07T18:08:56.127Z,58.70
2019-05-07T18:11:34.391Z,59.00
2019-05-07T18:14:22.806Z,59.60
2019-05-07T18:17:07.366Z,60.00
2019-05-07T18:19:46.284Z,60.50
2019-05-07T18:22:23.813Z,61.20
2019-05-07T18:25:01.803Z,62.00
2019-05-07T18:27:38.826Z,62.60
2019-05-07T18:30:16.307Z,63.30
2019-05-07T18:33:02.431Z,63.70
2019-05-07T18:35:38.469Z,64.30
2019-05-07T18:38:22.402Z,64.90
2019-05-07T18:41:02.362Z,65.60
2019-05-07T18:43:38.685Z,66.10
2019-05-07T18:46:17.348Z,66.40
2019-05-07T18:48:55.720Z,67.00
2019-05-07T18:51:34.048Z,67.60
2019-05-07T18:54:27.011Z,67.90
2019-05-07T18:56:52.848Z,68.20
2019-05-07T18:59:31.829Z,68.60
2019-05-07T19:02:09.594Z,69.20
2019-05-07T19:04:51.958Z,69.50
2019-05-07T19:07:29.732Z,70.00
2019-05-07T19:10:07.592Z,70.30
2019-05-07T19:12:45.318Z,70.70
2019-05-07T19:15:23.014Z,71.30
2019-05-07T19:18:02.649Z,71.40
2019-05-07T19:20:38.628Z,71.80
2019-05-07T19:23:16.423Z,72.10
2019-05-07T19:25:54.386Z,72.50
2019-05-07T19:28:32.898Z,73.10
2019-05-07T19:31:09.829Z,73.60
2019-05-07T19:33:47.452Z,74.20
2019-05-07T19:36:24.949Z,74.80
2019-05-07T19:39:02.467Z,75.20
2019-05-07T19:41:39.969Z,75.60
2019-05-07T19:44:17.463Z,75.80
2019-05-07T19:46:55.558Z,76.20
2019-05-07T19:49:33.066Z,76.50
2019-05-07T19:52:12.447Z,76.70
2019-05-07T19:54:58.852Z,76.90
2019-05-07T19:57:29.464Z,77.30
2019-05-07T20:00:07.534Z,77.70
2019-05-07T20:02:46.327Z,78.10
2019-05-07T20:05:23.842Z,78.20
2019-05-07T20:08:04.229Z,78.90
2019-05-07T20:10:43.217Z,80.00
2019-05-07T20:13:20.689Z,80.40
2019-05-07T20:16:07.090Z,81.10
2019-05-07T20:18:44.592Z,81.40
2019-05-07T20:21:22.867Z,82.30
2019-05-07T20:24:01.739Z,83.10
2019-05-07T20:26:37.079Z,84.90
2019-05-07T20:29:14.580Z,86.70
2019-05-07T20:31:53.256Z,87.30
2019-05-07T20:34:29.629Z,88.60
2019-05-07T20:37:07.191Z,90.00
2019-05-07T20:39:44.711Z,90.50
2019-05-07T20:42:23.182Z,90.90
2019-05-07T20:44:59.699Z,91.30
2019-05-07T20:47:37.200Z,91.80
2019-05-07T20:50:14.721Z,92.40
2019-05-07T20:52:54.686Z,93.00
2019-05-07T20:55:36.840Z,93.60
2019-05-07T20:58:14.338Z,93.80
2019-05-07T21:00:52.621Z,93.90
2019-05-07T21:03:29.350Z,94.40
2019-05-07T21:06:06.898Z,94.80
2019-05-07T21:08:44.402Z,94.90
2019-05-07T21:11:22.720Z,95.00
2019-05-07T21:13:59.411Z,94.70
2019-05-07T21:16:37.228Z,94.40
2019-05-07T21:19:14.708Z,94.40
2019-05-07T21:21:52.243Z,94.20
2019-05-07T21:24:29.812Z,93.90
2019-05-07T21:27:07.325Z,93.70
2019-05-07T21:29:44.807Z,93.70
2019-05-07T21:32:23.140Z,93.70
2019-05-07T21:34:59.790Z,93.60
2019-05-07T21:37:37.285Z,93.40
2019-05-07T21:40:14.770Z,93.40
2019-05-07T21:42:52.283Z,93.50
2019-05-07T21:45:29.787Z,93.70
2019-05-07T21:48:07.284Z,93.60
2019-05-07T21:50:44.749Z,93.70
2019-05-07T21:53:29.329Z,93.70
2019-05-07T21:56:12.649Z,94.00
2019-05-07T21:58:54.203Z,93.80
2019-05-07T22:01:37.554Z,94.50
2019-05-07T22:04:15.041Z,95.00
2019-05-07T22:06:52.583Z,95.50
2019-05-07T22:09:30.039Z,96.10
2019-05-07T22:12:07.545Z,96.20
2019-05-07T22:14:45.027Z,96.60
2019-05-07T22:17:22.589Z,96.90
2019-05-07T22:20:00.066Z,97.00
2019-05-07T22:22:37.581Z,97.30
2019-05-07T22:25:15.044Z,97.60
2019-05-07T22:27:53.099Z,97.90
2019-05-07T22:30:35.490Z,97.70
2019-05-07T22:33:17.349Z,97.90
2019-05-07T22:35:54.818Z,98.10
2019-05-07T22:38:32.464Z,98.40
2019-05-07T22:41:09.856Z,98.60
2019-05-07T22:43:47.352Z,98.70
2019-05-07T22:46:24.845Z,99.10
2019-05-07T22:49:03.061Z,99.00
2019-05-07T22:51:39.904Z,98.90
2019-05-07T22:54:17.437Z,99.00
2019-05-07T22:57:05.048Z,99.20
2019-05-07T22:59:43.324Z,99.50
2019-05-07T23:02:20.041Z,99.70
2019-05-07T23:04:57.528Z,99.90
2019-05-07T23:07:34.999Z,99.90
2019-05-07T23:10:12.503Z,99.90
2019-05-07T23:12:50.017Z,99.90
2019-05-07T23:15:27.490Z,99.90
2019-05-07T23:18:04.996Z,99.90
2019-05-07T23:20:42.797Z,99.90
2019-05-07T23:23:21.768Z,99.90
2019-05-07T23:25:57.487Z,99.90
2019-05-07T23:28:34.981Z,99.90
2019-05-07T23:31:12.461Z,99.90
2019-05-07T23:33:51.894Z,99.90
2019-05-07T23:36:27.459Z,99.90
2019-05-07T23:39:06.045Z,99.90
2019-05-07T23:41:47.099Z,99.90
2019-05-07T23:44:24.599Z,99.90
2019-05-07T23:47:02.759Z,99.90
2019-05-07T23:49:39.591Z,99.90
2019-05-07T23:52:17.077Z,99.90
2019-05-07T23:54:54.582Z,99.90
2019-05-07T23:57:32.654Z,99.90
